Hovedside
METAR-TAF:

METAR-TAF

Lufthavner :

Kajana lufthavn

Kajana, Finland

breddegrad: 64-17N, lengdegrad: 027-41E, høyde over havet: 143 m

Gjeldene værobservasjon

Denne rapporten ble laget for 23 minutter siden, klokken 15:20 UTC
Vind 4 kt fra Vest-nordvest
Temperatur 11°C
Luftfuktighet 32%
Trykk 1032 hPa
Sikt 10 km eller mer
ingen skyer under 1500 m og ingen bygeskyer

METAR: EFKI 181520Z 30004KT CAVOK 11/M05 Q1032

Tid: 18:43 (15:43 UTC)

Varsel

Denne rapporten ble laget for 1 time og 15 minutter siden, klokken 14:28 UTC
Varsel gyldig fra 18. klokken 15 UTC til 18. klokken 21 UTC
Vind 3 kt fra Vest-nordvest
Sikt 10 km eller mer
ingen skyer under 1500 m og ingen bygeskyer

TAF: EFKI 181428Z 1815/1821 30003KT CAVOK

Værobservasjoner og værvarsel for over 4000 flyplasser (METAR- og TAF-rapporter).

Tilgjengelige stasjoner er representert av de røde og gule prikkene på kartet.

Hold musepekeren over prikken for å se navnet på stasjonen.

Klikk så for å se værobservasjoner og -varsler.

For å forandre kartet kan du klikke på den grønne knappen med svart kryss for å zoome inn, på den grønne knappen med strek for å zoome ut, eller på de grønne pilene for å se tilstøtende kart.


METAR-TAF: